sensor_id;sensor_type;location;lat;lon;timestamp;pressure;altitude;pressure_sealevel;temperature;humidity
11302;BME280;5706;50.650;13.380;2022-10-17T00:00:51;56425.66;;;-140.63;74.39
11302;BME280;5706;50.650;13.380;2022-10-17T00:03:19;56435.59;;;-140.63;74.19
11302;BME280;5706;50.650;13.380;2022-10-17T00:05:47;56393.84;;;-140.63;74.55
11302;BME280;5706;50.650;13.380;2022-10-17T00:08:16;56389.88;;;-140.63;74.81
11302;BME280;5706;50.650;13.380;2022-10-17T00:10:45;56417.69;;;-140.63;74.36
11302;BME280;5706;50.650;13.380;2022-10-17T00:13:21;56419.69;;;-140.63;74.55
11302;BME280;5706;50.650;13.380;2022-10-17T00:15:50;56401.78;;;-140.63;74.11
11302;BME280;5706;50.650;13.380;2022-10-17T00:18:19;56407.75;;;-140.63;73.77
11302;BME280;5706;50.650;13.380;2022-10-17T00:20:47;56401.78;;;-140.63;74.64
11302;BME280;5706;50.650;13.380;2022-10-17T00:23:14;56395.84;;;-140.63;73.97
11302;BME280;5706;50.650;13.380;2022-10-17T00:25:42;56435.59;;;-140.63;75.29
11302;BME280;5706;50.650;13.380;2022-10-17T00:28:10;56415.72;;;-140.63;74.56
11302;BME280;5706;50.650;13.380;2022-10-17T00:30:39;56437.59;;;-140.63;74.44
11302;BME280;5706;50.650;13.380;2022-10-17T00:33:09;56409.75;;;-140.63;74.19
11302;BME280;5706;50.650;13.380;2022-10-17T00:35:36;56423.66;;;-140.63;74.26
11302;BME280;5706;50.650;13.380;2022-10-17T00:38:04;56441.56;;;-140.63;74.06
11302;BME280;5706;50.650;13.380;2022-10-17T00:40:31;56417.69;;;-140.63;74.14
11302;BME280;5706;50.650;13.380;2022-10-17T00:42:59;56409.75;;;-140.63;74.14
11302;BME280;5706;50.650;13.380;2022-10-17T00:45:28;56411.75;;;-140.63;75.49
11302;BME280;5706;50.650;13.380;2022-10-17T00:47:59;56417.69;;;-140.63;75.00
11302;BME280;5706;50.650;13.380;2022-10-17T00:50:31;56425.66;;;-140.63;74.66
11302;BME280;5706;50.650;13.380;2022-10-17T00:53:01;56413.72;;;-140.63;74.94
11302;BME280;5706;50.650;13.380;2022-10-17T00:55:34;56417.69;;;-140.63;74.10
11302;BME280;5706;50.650;13.380;2022-10-17T00:58:05;56397.81;;;-140.63;74.23
11302;BME280;5706;50.650;13.380;2022-10-17T01:00:33;56409.75;;;-140.63;74.47
11302;BME280;5706;50.650;13.380;2022-10-17T01:03:01;56423.66;;;-140.63;74.59
11302;BME280;5706;50.650;13.380;2022-10-17T01:05:31;56417.69;;;-140.63;74.90
11302;BME280;5706;50.650;13.380;2022-10-17T01:07:58;56431.63;;;-140.63;73.76
11302;BME280;5706;50.650;13.380;2022-10-17T01:10:31;56403.78;;;-140.63;74.25
11302;BME280;5706;50.650;13.380;2022-10-17T01:13:09;56409.75;;;-140.63;74.81
11302;BME280;5706;50.650;13.380;2022-10-17T01:15:50;56423.66;;;-140.63;74.78
11302;BME280;5706;50.650;13.380;2022-10-17T01:18:38;56415.72;;;-140.63;74.31
11302;BME280;5706;50.650;13.380;2022-10-17T01:21:29;56403.78;;;-140.63;74.71
11302;BME280;5706;50.650;13.380;2022-10-17T01:24:28;56405.78;;;-140.63;75.14
11302;BME280;5706;50.650;13.380;2022-10-17T01:27:35;56429.63;;;-140.63;74.50
11302;BME280;5706;50.650;13.380;2022-10-17T01:30:47;56417.69;;;-140.63;74.04
11302;BME280;5706;50.650;13.380;2022-10-17T01:33:29;56409.75;;;-140.63;73.89
11302;BME280;5706;50.650;13.380;2022-10-17T01:36:10;56397.81;;;-140.63;74.62
11302;BME280;5706;50.650;13.380;2022-10-17T01:38:46;56397.81;;;-140.63;74.25
11302;BME280;5706;50.650;13.380;2022-10-17T01:41:24;56427.66;;;-140.63;74.24
11302;BME280;5706;50.650;13.380;2022-10-17T01:44:00;56391.84;;;-140.63;74.40
11302;BME280;5706;50.650;13.380;2022-10-17T01:46:35;56419.69;;;-140.63;74.39
11302;BME280;5706;50.650;13.380;2022-10-17T01:49:07;56419.69;;;-140.63;74.31
11302;BME280;5706;50.650;13.380;2022-10-17T01:51:39;56401.78;;;-140.63;75.24
11302;BME280;5706;50.650;13.380;2022-10-17T01:54:14;56397.81;;;-140.63;76.39
11302;BME280;5706;50.650;13.380;2022-10-17T01:56:49;56417.69;;;-140.63;74.97
11302;BME280;5706;50.650;13.380;2022-10-17T01:59:23;56441.56;;;-140.63;74.66
11302;BME280;5706;50.650;13.380;2022-10-17T02:01:57;56421.69;;;-140.63;74.45
11302;BME280;5706;50.650;13.380;2022-10-17T02:04:26;56439.56;;;-140.63;74.66
11302;BME280;5706;50.650;13.380;2022-10-17T02:06:54;56419.69;;;-140.63;74.36
11302;BME280;5706;50.650;13.380;2022-10-17T02:09:23;56393.84;;;-140.63;76.55
11302;BME280;5706;50.650;13.380;2022-10-17T02:12:07;56401.78;;;-140.63;77.37
11302;BME280;5706;50.650;13.380;2022-10-17T02:15:03;56373.97;;;-140.63;77.06
11302;BME280;5706;50.650;13.380;2022-10-17T02:17:57;56369.97;;;-140.63;76.33
11302;BME280;5706;50.650;13.380;2022-10-17T02:20:46;56429.63;;;-140.63;75.11
11302;BME280;5706;50.650;13.380;2022-10-17T02:23:23;56399.81;;;-140.63;75.51
11302;BME280;5706;50.650;13.380;2022-10-17T02:26:06;56377.94;;;-140.63;75.57
11302;BME280;5706;50.650;13.380;2022-10-17T02:28:41;56393.84;;;-140.63;75.91
11302;BME280;5706;50.650;13.380;2022-10-17T02:31:15;56399.81;;;-140.63;76.27
11302;BME280;5706;50.650;13.380;2022-10-17T02:33:51;56387.88;;;-140.63;73.04
11302;BME280;5706;50.650;13.380;2022-10-17T02:36:28;56413.72;;;-140.63;73.42
11302;BME280;5706;50.650;13.380;2022-10-17T02:39:00;56383.91;;;-140.63;74.84
11302;BME280;5706;50.650;13.380;2022-10-17T02:41:30;56415.72;;;-140.63;76.45
11302;BME280;5706;50.650;13.380;2022-10-17T02:44:01;56375.94;;;-140.63;75.77
11302;BME280;5706;50.650;13.380;2022-10-17T02:46:31;56407.75;;;-140.63;73.77
11302;BME280;5706;50.650;13.380;2022-10-17T02:49:06;56403.78;;;-140.63;72.23
11302;BME280;5706;50.650;13.380;2022-10-17T02:51:44;56439.56;;;-140.63;74.24
11302;BME280;5706;50.650;13.380;2022-10-17T02:54:20;56423.66;;;-140.63;73.35
11302;BME280;5706;50.650;13.380;2022-10-17T02:56:56;56373.97;;;-140.63;72.49
11302;BME280;5706;50.650;13.380;2022-10-17T02:59:30;56401.78;;;-140.63;74.33
11302;BME280;5706;50.650;13.380;2022-10-17T03:02:02;56393.84;;;-140.63;74.29
11302;BME280;5706;50.650;13.380;2022-10-17T03:04:34;56403.78;;;-140.63;75.43
11302;BME280;5706;50.650;13.380;2022-10-17T03:07:02;56397.81;;;-140.63;75.04
11302;BME280;5706;50.650;13.380;2022-10-17T03:09:29;56419.69;;;-140.63;73.19
11302;BME280;5706;50.650;13.380;2022-10-17T03:11:57;56413.72;;;-140.63;74.37
11302;BME280;5706;50.650;13.380;2022-10-17T03:14:24;56417.69;;;-140.63;75.72
11302;BME280;5706;50.650;13.380;2022-10-17T03:16:52;56403.78;;;-140.63;77.28
11302;BME280;5706;50.650;13.380;2022-10-17T03:19:19;56387.88;;;-140.63;76.14
11302;BME280;5706;50.650;13.380;2022-10-17T03:21:48;56409.75;;;-140.63;75.77
11302;BME280;5706;50.650;13.380;2022-10-17T03:24:16;56421.69;;;-140.63;75.04
11302;BME280;5706;50.650;13.380;2022-10-17T03:26:43;56407.75;;;-140.63;75.37
11302;BME280;5706;50.650;13.380;2022-10-17T03:29:12;56391.84;;;-140.63;75.14
11302;BME280;5706;50.650;13.380;2022-10-17T03:31:40;56389.88;;;-140.63;74.13
11302;BME280;5706;50.650;13.380;2022-10-17T03:34:07;56393.84;;;-140.63;73.60
11302;BME280;5706;50.650;13.380;2022-10-17T03:36:35;56389.88;;;-140.63;73.45
11302;BME280;5706;50.650;13.380;2022-10-17T03:39:04;56419.69;;;-140.63;73.10
11302;BME280;5706;50.650;13.380;2022-10-17T03:41:31;56369.97;;;-140.63;73.28
11302;BME280;5706;50.650;13.380;2022-10-17T03:43:59;56431.63;;;-140.63;73.39
11302;BME280;5706;50.650;13.380;2022-10-17T03:46:28;56399.81;;;-140.63;73.13
11302;BME280;5706;50.650;13.380;2022-10-17T03:48:55;56354.06;;;-140.63;73.66
11302;BME280;5706;50.650;13.380;2022-10-17T03:51:23;56389.88;;;-140.63;73.76
11302;BME280;5706;50.650;13.380;2022-10-17T03:53:51;56358.06;;;-140.63;73.99
11302;BME280;5706;50.650;13.380;2022-10-17T03:56:21;56415.72;;;-140.63;73.96
11302;BME280;5706;50.650;13.380;2022-10-17T03:58:50;56401.78;;;-140.63;74.07
11302;BME280;5706;50.650;13.380;2022-10-17T04:01:18;56389.88;;;-140.63;74.00
11302;BME280;5706;50.650;13.380;2022-10-17T04:03:48;56375.94;;;-140.63;74.06
11302;BME280;5706;50.650;13.380;2022-10-17T04:06:17;56387.88;;;-140.63;73.73
11302;BME280;5706;50.650;13.380;2022-10-17T04:08:45;56375.94;;;-140.63;73.42
11302;BME280;5706;50.650;13.380;2022-10-17T04:11:16;56368.00;;;-140.63;72.66
11302;BME280;5706;50.650;13.380;2022-10-17T04:13:46;56368.00;;;-140.63;73.16
11302;BME280;5706;50.650;13.380;2022-10-17T04:16:18;56409.75;;;-140.63;73.72
11302;BME280;5706;50.650;13.380;2022-10-17T04:18:45;56366.00;;;-140.63;73.12
11302;BME280;5706;50.650;13.380;2022-10-17T04:21:13;56375.94;;;-140.63;72.92
11302;BME280;5706;50.650;13.380;2022-10-17T04:23:40;56387.88;;;-140.63;72.96
11302;BME280;5706;50.650;13.380;2022-10-17T04:26:08;56397.81;;;-140.63;73.43
11302;BME280;5706;50.650;13.380;2022-10-17T04:28:37;56387.88;;;-140.63;73.58
11302;BME280;5706;50.650;13.380;2022-10-17T04:31:06;56397.81;;;-140.63;73.96
11302;BME280;5706;50.650;13.380;2022-10-17T04:33:37;56346.13;;;-140.63;73.10
11302;BME280;5706;50.650;13.380;2022-10-17T04:36:06;56401.78;;;-140.63;73.73
11302;BME280;5706;50.650;13.380;2022-10-17T04:38:36;56405.78;;;-140.63;73.23
11302;BME280;5706;50.650;13.380;2022-10-17T04:41:05;56383.91;;;-140.63;73.18
11302;BME280;5706;50.650;13.380;2022-10-17T04:43:37;56387.88;;;-140.63;73.41
11302;BME280;5706;50.650;13.380;2022-10-17T04:46:07;56407.75;;;-140.63;73.43
11302;BME280;5706;50.650;13.380;2022-10-17T04:48:37;56354.06;;;-140.63;73.30
11302;BME280;5706;50.650;13.380;2022-10-17T04:51:07;56369.97;;;-140.63;73.23
11302;BME280;5706;50.650;13.380;2022-10-17T04:53:38;56395.84;;;-140.63;72.47
11302;BME280;5706;50.650;13.380;2022-10-17T04:56:08;56397.81;;;-140.63;72.69
11302;BME280;5706;50.650;13.380;2022-10-17T04:58:40;56401.78;;;-140.63;72.75
11302;BME280;5706;50.650;13.380;2022-10-17T05:01:13;56352.09;;;-140.63;72.36
11302;BME280;5706;50.650;13.380;2022-10-17T05:03:42;56391.84;;;-140.63;72.26
11302;BME280;5706;50.650;13.380;2022-10-17T05:06:13;56391.84;;;-140.63;72.13
11302;BME280;5706;50.650;13.380;2022-10-17T05:08:42;56391.84;;;-140.63;72.48
11302;BME280;5706;50.650;13.380;2022-10-17T05:11:18;56411.75;;;-140.63;72.52
11302;BME280;5706;50.650;13.380;2022-10-17T05:13:53;56417.69;;;-140.63;71.86
11302;BME280;5706;50.650;13.380;2022-10-17T05:16:22;56385.88;;;-140.63;72.53
11302;BME280;5706;50.650;13.380;2022-10-17T05:18:56;56393.84;;;-140.63;72.33
11302;BME280;5706;50.650;13.380;2022-10-17T05:21:25;56429.63;;;-140.63;71.85
11302;BME280;5706;50.650;13.380;2022-10-17T05:23:54;56403.78;;;-140.63;71.18
11302;BME280;5706;50.650;13.380;2022-10-17T05:26:23;56425.66;;;-140.63;70.03
11302;BME280;5706;50.650;13.380;2022-10-17T05:28:52;56423.66;;;-140.63;71.27
11302;BME280;5706;50.650;13.380;2022-10-17T05:31:20;56389.88;;;-140.63;68.92
11302;BME280;5706;50.650;13.380;2022-10-17T05:33:48;56407.75;;;-140.63;71.73
11302;BME280;5706;50.650;13.380;2022-10-17T05:36:15;56405.78;;;-140.63;70.85
11302;BME280;5706;50.650;13.380;2022-10-17T05:38:43;56437.59;;;-140.63;71.59
11302;BME280;5706;50.650;13.380;2022-10-17T05:41:14;56385.88;;;-140.63;71.61
11302;BME280;5706;50.650;13.380;2022-10-17T05:43:41;56391.84;;;-140.63;72.15
11302;BME280;5706;50.650;13.380;2022-10-17T05:46:10;56403.78;;;-140.63;72.16
11302;BME280;5706;50.650;13.380;2022-10-17T05:48:38;56395.84;;;-140.63;74.17
11302;BME280;5706;50.650;13.380;2022-10-17T05:51:07;56427.66;;;-140.63;74.70
11302;BME280;5706;50.650;13.380;2022-10-17T05:53:38;56393.84;;;-140.63;74.27
11302;BME280;5706;50.650;13.380;2022-10-17T05:56:09;56403.78;;;-140.63;72.48
11302;BME280;5706;50.650;13.380;2022-10-17T05:58:40;56379.94;;;-140.63;72.81
11302;BME280;5706;50.650;13.380;2022-10-17T06:01:11;56405.78;;;-140.63;73.21
11302;BME280;5706;50.650;13.380;2022-10-17T06:03:39;56433.59;;;-140.63;73.51
11302;BME280;5706;50.650;13.380;2022-10-17T06:06:08;56411.75;;;-140.63;74.04
11302;BME280;5706;50.650;13.380;2022-10-17T06:08:37;56387.88;;;-140.63;73.81
11302;BME280;5706;50.650;13.380;2022-10-17T06:11:05;56377.94;;;-140.63;74.64
11302;BME280;5706;50.650;13.380;2022-10-17T06:13:33;56415.72;;;-140.63;75.34
11302;BME280;5706;50.650;13.380;2022-10-17T06:16:00;56413.72;;;-140.63;74.93
11302;BME280;5706;50.650;13.380;2022-10-17T06:18:33;56423.66;;;-140.63;72.72
11302;BME280;5706;50.650;13.380;2022-10-17T06:21:02;56411.75;;;-140.63;74.63
11302;BME280;5706;50.650;13.380;2022-10-17T06:23:30;56405.78;;;-140.63;74.90
11302;BME280;5706;50.650;13.380;2022-10-17T06:25:59;56417.69;;;-140.63;73.83
11302;BME280;5706;50.650;13.380;2022-10-17T06:28:27;56415.72;;;-140.63;73.56
11302;BME280;5706;50.650;13.380;2022-10-17T06:30:55;56391.84;;;-140.63;73.84
11302;BME280;5706;50.650;13.380;2022-10-17T06:33:23;56385.88;;;-140.63;73.69
11302;BME280;5706;50.650;13.380;2022-10-17T06:35:52;56417.69;;;-140.63;73.74
11302;BME280;5706;50.650;13.380;2022-10-17T06:38:21;56389.88;;;-140.63;73.54
11302;BME280;5706;50.650;13.380;2022-10-17T06:40:49;56399.81;;;-140.63;73.81
11302;BME280;5706;50.650;13.380;2022-10-17T06:43:18;56389.88;;;-140.63;73.31
11302;BME280;5706;50.650;13.380;2022-10-17T06:45:46;56381.91;;;-140.63;72.90
11302;BME280;5706;50.650;13.380;2022-10-17T06:48:14;56393.84;;;-140.63;73.04
11302;BME280;5706;50.650;13.380;2022-10-17T06:50:42;56381.91;;;-140.63;72.55
11302;BME280;5706;50.650;13.380;2022-10-17T06:53:11;56405.78;;;-140.63;72.17
11302;BME280;5706;50.650;13.380;2022-10-17T06:55:39;56415.72;;;-140.63;71.24
11302;BME280;5706;50.650;13.380;2022-10-17T06:58:07;56383.91;;;-140.63;71.33
11302;BME280;5706;50.650;13.380;2022-10-17T07:00:34;56387.88;;;-140.63;70.60
11302;BME280;5706;50.650;13.380;2022-10-17T07:03:02;56346.13;;;-140.63;70.00
11302;BME280;5706;50.650;13.380;2022-10-17T07:05:30;56383.91;;;-140.63;69.93
11302;BME280;5706;50.650;13.380;2022-10-17T07:07:57;56362.03;;;-140.63;70.25
11302;BME280;5706;50.650;13.380;2022-10-17T07:10:26;56379.94;;;-140.63;69.72
11302;BME280;5706;50.650;13.380;2022-10-17T07:12:54;56371.97;;;-140.63;69.66
11302;BME280;5706;50.650;13.380;2022-10-17T07:15:21;56358.06;;;-140.63;69.92
11302;BME280;5706;50.650;13.380;2022-10-17T07:17:49;56379.94;;;-140.63;69.69
11302;BME280;5706;50.650;13.380;2022-10-17T07:20:17;56405.78;;;-140.63;68.86
11302;BME280;5706;50.650;13.380;2022-10-17T07:22:45;56385.88;;;-140.63;68.29
11302;BME280;5706;50.650;13.380;2022-10-17T07:25:12;56391.84;;;-140.63;67.77
11302;BME280;5706;50.650;13.380;2022-10-17T07:27:41;56362.03;;;-140.63;67.92
11302;BME280;5706;50.650;13.380;2022-10-17T07:30:10;56375.94;;;-140.63;67.38
11302;BME280;5706;50.650;13.380;2022-10-17T07:32:38;56368.00;;;-140.63;68.11
11302;BME280;5706;50.650;13.380;2022-10-17T07:35:06;56352.09;;;-140.63;67.47
11302;BME280;5706;50.650;13.380;2022-10-17T07:37:34;56336.19;;;-140.63;67.36
11302;BME280;5706;50.650;13.380;2022-10-17T07:40:03;56366.00;;;-140.63;66.93
11302;BME280;5706;50.650;13.380;2022-10-17T07:42:32;56340.16;;;-140.63;67.16
11302;BME280;5706;50.650;13.380;2022-10-17T07:45:04;56358.06;;;-140.63;66.31
11302;BME280;5706;50.650;13.380;2022-10-17T07:47:32;56391.84;;;-140.63;66.25
11302;BME280;5706;50.650;13.380;2022-10-17T07:50:00;56383.91;;;-140.63;66.31
11302;BME280;5706;50.650;13.380;2022-10-17T07:52:29;56387.88;;;-140.63;65.83
11302;BME280;5706;50.650;13.380;2022-10-17T07:54:56;56381.91;;;-140.63;66.15
11302;BME280;5706;50.650;13.380;2022-10-17T07:57:24;56340.16;;;-140.63;65.85
11302;BME280;5706;50.650;13.380;2022-10-17T07:59:55;56346.13;;;-140.63;65.45
11302;BME280;5706;50.650;13.380;2022-10-17T08:02:27;56348.13;;;-140.63;65.26
11302;BME280;5706;50.650;13.380;2022-10-17T08:05:09;56362.03;;;-140.63;65.08
11302;BME280;5706;50.650;13.380;2022-10-17T08:07:38;56360.03;;;-140.63;64.95
11302;BME280;5706;50.650;13.380;2022-10-17T08:10:09;56360.03;;;-140.63;64.38
11302;BME280;5706;50.650;13.380;2022-10-17T08:12:37;56326.25;;;-140.63;64.46
11302;BME280;5706;50.650;13.380;2022-10-17T08:15:06;56354.06;;;-140.63;64.29
11302;BME280;5706;50.650;13.380;2022-10-17T08:17:37;56328.22;;;-140.63;64.04
11302;BME280;5706;50.650;13.380;2022-10-17T08:20:05;56336.19;;;-140.63;63.67
11302;BME280;5706;50.650;13.380;2022-10-17T08:22:34;56342.16;;;-140.63;63.59
11302;BME280;5706;50.650;13.380;2022-10-17T08:25:01;56336.19;;;-140.63;63.35
11302;BME280;5706;50.650;13.380;2022-10-17T08:27:31;56346.13;;;-140.63;63.57
11302;BME280;5706;50.650;13.380;2022-10-17T08:29:59;56348.13;;;-140.63;63.67
11302;BME280;5706;50.650;13.380;2022-10-17T08:32:28;56338.16;;;-140.63;63.14
11302;BME280;5706;50.650;13.380;2022-10-17T08:34:57;56364.03;;;-140.63;63.52
11302;BME280;5706;50.650;13.380;2022-10-17T08:37:25;56346.13;;;-140.63;63.04
11302;BME280;5706;50.650;13.380;2022-10-17T08:39:54;56330.22;;;-140.63;62.67
11302;BME280;5706;50.650;13.380;2022-10-17T08:42:54;56314.31;;;-140.63;61.75
11302;BME280;5706;50.650;13.380;2022-10-17T08:45:53;56366.00;;;-140.63;60.72
11302;BME280;5706;50.650;13.380;2022-10-17T08:48:30;56344.13;;;-140.63;60.43
11302;BME280;5706;50.650;13.380;2022-10-17T08:51:06;56304.38;;;-140.63;59.58
11302;BME280;5706;50.650;13.380;2022-10-17T08:53:42;56330.22;;;-140.63;58.89
11302;BME280;5706;50.650;13.380;2022-10-17T08:56:17;56330.22;;;-140.63;58.80
11302;BME280;5706;50.650;13.380;2022-10-17T08:58:46;56296.41;;;-140.63;57.51
11302;BME280;5706;50.650;13.380;2022-10-17T09:01:28;56352.09;;;-140.63;57.14
11302;BME280;5706;50.650;13.380;2022-10-17T09:04:09;56322.25;;;-140.63;55.91
11302;BME280;5706;50.650;13.380;2022-10-17T09:07:05;56258.63;;;-140.63;55.01
11302;BME280;5706;50.650;13.380;2022-10-17T09:09:41;56316.31;;;-140.63;54.54
11302;BME280;5706;50.650;13.380;2022-10-17T09:12:21;56306.34;;;-140.63;52.08
11302;BME280;5706;50.650;13.380;2022-10-17T09:15:10;56262.63;;;-140.63;48.75
11302;BME280;5706;50.650;13.380;2022-10-17T09:18:02;56268.59;;;-140.63;50.22
11302;BME280;5706;50.650;13.380;2022-10-17T09:20:40;56248.69;;;-140.63;48.76
11302;BME280;5706;50.650;13.380;2022-10-17T09:23:14;56288.47;;;-140.63;48.43
11302;BME280;5706;50.650;13.380;2022-10-17T09:25:47;56286.47;;;-140.63;50.36
11302;BME280;5706;50.650;13.380;2022-10-17T09:28:22;56296.41;;;-140.63;51.19
11302;BME280;5706;50.650;13.380;2022-10-17T09:30:56;56268.59;;;-140.63;48.81
11302;BME280;5706;50.650;13.380;2022-10-17T09:33:28;56272.56;;;-140.63;46.75
11302;BME280;5706;50.650;13.380;2022-10-17T09:36:01;56296.41;;;-140.63;48.65
11302;BME280;5706;50.650;13.380;2022-10-17T09:38:37;56316.31;;;-140.63;52.01
11302;BME280;5706;50.650;13.380;2022-10-17T09:41:15;56330.22;;;-140.63;53.96
11302;BME280;5706;50.650;13.380;2022-10-17T09:43:44;56330.22;;;-140.63;55.38
11302;BME280;5706;50.650;13.380;2022-10-17T09:46:18;56373.97;;;-140.63;56.36
11302;BME280;5706;50.650;13.380;2022-10-17T09:48:54;56346.13;;;-140.63;57.12
11302;BME280;5706;50.650;13.380;2022-10-17T09:51:27;56326.25;;;-140.63;57.64
11302;BME280;5706;50.650;13.380;2022-10-17T09:54:00;56342.16;;;-140.63;56.50
11302;BME280;5706;50.650;13.380;2022-10-17T09:56:30;56328.22;;;-140.63;56.75
11302;BME280;5706;50.650;13.380;2022-10-17T09:59:30;56328.22;;;-140.63;56.51
11302;BME280;5706;50.650;13.380;2022-10-17T10:02:09;56326.25;;;-140.63;55.71
11302;BME280;5706;50.650;13.380;2022-10-17T10:04:58;56346.13;;;-140.63;55.10
11302;BME280;5706;50.650;13.380;2022-10-17T10:07:31;56348.13;;;-140.63;54.76
11302;BME280;5706;50.650;13.380;2022-10-17T10:10:04;56310.34;;;-140.63;53.99
11302;BME280;5706;50.650;13.380;2022-10-17T10:12:36;56310.34;;;-140.63;53.93
11302;BME280;5706;50.650;13.380;2022-10-17T10:15:30;56364.03;;;-140.63;53.67
11302;BME280;5706;50.650;13.380;2022-10-17T10:18:00;56352.09;;;-140.63;53.60
11302;BME280;5706;50.650;13.380;2022-10-17T10:20:32;56368.00;;;-140.63;54.82
11302;BME280;5706;50.650;13.380;2022-10-17T10:23:12;56314.31;;;-140.63;53.08
11302;BME280;5706;50.650;13.380;2022-10-17T10:25:54;56308.34;;;-140.63;49.16
11302;BME280;5706;50.650;13.380;2022-10-17T10:28:25;56286.47;;;-140.63;46.06
11302;BME280;5706;50.650;13.380;2022-10-17T10:30:56;56228.81;;;-140.63;46.48
11302;BME280;5706;50.650;13.380;2022-10-17T10:33:28;56266.59;;;-140.63;45.25
11302;BME280;5706;50.650;13.380;2022-10-17T10:35:59;56254.66;;;-140.63;45.57
11302;BME280;5706;50.650;13.380;2022-10-17T10:38:30;56248.69;;;-140.63;45.32
11302;BME280;5706;50.650;13.380;2022-10-17T10:41:03;56242.72;;;-140.63;44.89
11302;BME280;5706;50.650;13.380;2022-10-17T10:43:35;56252.69;;;-140.63;43.18
11302;BME280;5706;50.650;13.380;2022-10-17T10:46:17;56246.72;;;-140.63;43.11
11302;BME280;5706;50.650;13.380;2022-10-17T10:48:50;56212.91;;;-140.63;41.58
11302;BME280;5706;50.650;13.380;2022-10-17T10:51:24;56248.69;;;-140.63;41.68
11302;BME280;5706;50.650;13.380;2022-10-17T10:54:00;56224.84;;;-140.63;40.01
11302;BME280;5706;50.650;13.380;2022-10-17T10:56:36;56274.56;;;-140.63;43.29
11302;BME280;5706;50.650;13.380;2022-10-17T10:59:12;56226.84;;;-140.63;43.36
11302;BME280;5706;50.650;13.380;2022-10-17T11:01:49;56216.88;;;-140.63;43.33
11302;BME280;5706;50.650;13.380;2022-10-17T11:04:26;56264.59;;;-140.63;42.72
11302;BME280;5706;50.650;13.380;2022-10-17T11:07:00;56256.66;;;-140.63;43.23
11302;BME280;5706;50.650;13.380;2022-10-17T11:09:41;56246.72;;;-140.63;43.27
11302;BME280;5706;50.650;13.380;2022-10-17T11:12:20;56242.72;;;-140.63;42.36
11302;BME280;5706;50.650;13.380;2022-10-17T11:14:54;56202.97;;;-140.63;41.55
11302;BME280;5706;50.650;13.380;2022-10-17T11:17:31;56246.72;;;-140.63;41.58
11302;BME280;5706;50.650;13.380;2022-10-17T11:20:13;56206.94;;;-140.63;41.58
11302;BME280;5706;50.650;13.380;2022-10-17T11:22:47;56234.78;;;-140.63;42.43
11302;BME280;5706;50.650;13.380;2022-10-17T11:25:28;56246.72;;;-140.63;42.81
11302;BME280;5706;50.650;13.380;2022-10-17T11:28:00;56210.94;;;-140.63;41.46
11302;BME280;5706;50.650;13.380;2022-10-17T11:30:41;56197.00;;;-140.63;41.12
11302;BME280;5706;50.650;13.380;2022-10-17T11:33:18;56240.75;;;-140.63;42.43
11302;BME280;5706;50.650;13.380;2022-10-17T11:35:52;56222.84;;;-140.63;43.78
11302;BME280;5706;50.650;13.380;2022-10-17T11:38:35;56212.91;;;-140.63;42.67
11302;BME280;5706;50.650;13.380;2022-10-17T11:41:14;56189.06;;;-140.63;42.33
11302;BME280;5706;50.650;13.380;2022-10-17T11:43:52;56222.84;;;-140.63;43.56
11302;BME280;5706;50.650;13.380;2022-10-17T11:46:24;56212.91;;;-140.63;42.67
11302;BME280;5706;50.650;13.380;2022-10-17T11:49:01;56208.94;;;-140.63;46.01
11302;BME280;5706;50.650;13.380;2022-10-17T11:51:38;56228.81;;;-140.63;47.88
11302;BME280;5706;50.650;13.380;2022-10-17T11:54:12;56276.53;;;-140.63;48.19
11302;BME280;5706;50.650;13.380;2022-10-17T11:56:47;56290.44;;;-140.63;48.53
11302;BME280;5706;50.650;13.380;2022-10-17T11:59:55;56284.50;;;-140.63;47.85
11302;BME280;5706;50.650;13.380;2022-10-17T12:02:34;56280.50;;;-140.63;48.18
11302;BME280;5706;50.650;13.380;2022-10-17T12:05:17;56260.63;;;-140.63;48.75
11302;BME280;5706;50.650;13.380;2022-10-17T12:07:54;56294.44;;;-140.63;49.83
11302;BME280;5706;50.650;13.380;2022-10-17T12:10:38;56258.63;;;-140.63;49.46
11302;BME280;5706;50.650;13.380;2022-10-17T12:13:46;56336.19;;;-140.63;50.29
11302;BME280;5706;50.650;13.380;2022-10-17T12:16:40;56306.34;;;-140.63;50.57
11302;BME280;5706;50.650;13.380;2022-10-17T12:19:27;56294.44;;;-140.63;51.60
11302;BME280;5706;50.650;13.380;2022-10-17T12:22:22;56306.34;;;-140.63;51.77
11302;BME280;5706;50.650;13.380;2022-10-17T12:24:56;56288.47;;;-140.63;52.71
11302;BME280;5706;50.650;13.380;2022-10-17T12:27:42;56314.31;;;-140.63;53.00
11302;BME280;5706;50.650;13.380;2022-10-17T12:30:20;56320.28;;;-140.63;53.38
11302;BME280;5706;50.650;13.380;2022-10-17T12:32:56;56310.34;;;-140.63;53.51
11302;BME280;5706;50.650;13.380;2022-10-17T12:35:31;56308.34;;;-140.63;54.42
11302;BME280;5706;50.650;13.380;2022-10-17T12:38:27;56314.31;;;-140.63;54.51
11302;BME280;5706;50.650;13.380;2022-10-17T12:40:59;56346.13;;;-140.63;54.77
11302;BME280;5706;50.650;13.380;2022-10-17T12:43:56;56340.16;;;-140.63;54.29
11302;BME280;5706;50.650;13.380;2022-10-17T12:46:47;56350.09;;;-140.63;53.76
11302;BME280;5706;50.650;13.380;2022-10-17T12:49:48;56328.22;;;-140.63;55.11
11302;BME280;5706;50.650;13.380;2022-10-17T12:52:18;56354.06;;;-140.63;54.92
11302;BME280;5706;50.650;13.380;2022-10-17T12:54:53;56330.22;;;-140.63;54.85
11302;BME280;5706;50.650;13.380;2022-10-17T12:57:31;56330.22;;;-140.63;54.57
11302;BME280;5706;50.650;13.380;2022-10-17T13:00:16;56342.16;;;-140.63;54.44
11302;BME280;5706;50.650;13.380;2022-10-17T13:02:52;56348.13;;;-140.63;54.85
11302;BME280;5706;50.650;13.380;2022-10-17T13:05:27;56356.06;;;-140.63;55.20
11302;BME280;5706;50.650;13.380;2022-10-17T13:07:59;56391.84;;;-140.63;54.81
11302;BME280;5706;50.650;13.380;2022-10-17T13:10:31;56340.16;;;-140.63;53.60
11302;BME280;5706;50.650;13.380;2022-10-17T13:13:06;56330.22;;;-140.63;53.07